sensor_id;sensor_type;location;lat;lon;timestamp;P1;durP1;ratioP1;P2;durP2;ratioP2
79249;SDS011;68679;51.030;7.584;2024-01-27T00:00:39;3.42;;;1.40;;
79249;SDS011;68679;51.030;7.584;2024-01-27T00:03:04;8.43;;;1.80;;
79249;SDS011;68679;51.030;7.584;2024-01-27T00:05:29;8.23;;;1.97;;
79249;SDS011;68679;51.030;7.584;2024-01-27T00:07:54;2.90;;;1.47;;
79249;SDS011;68679;51.030;7.584;2024-01-27T00:10:20;8.03;;;1.80;;
79249;SDS011;68679;51.030;7.584;2024-01-27T00:12:45;4.43;;;1.50;;
79249;SDS011;68679;51.030;7.584;2024-01-27T00:15:10;7.10;;;1.40;;
79249;SDS011;68679;51.030;7.584;2024-01-27T00:17:36;7.73;;;1.90;;
79249;SDS011;68679;51.030;7.584;2024-01-27T00:20:01;10.37;;;2.03;;
79249;SDS011;68679;51.030;7.584;2024-01-27T00:22:27;3.17;;;1.50;;
79249;SDS011;68679;51.030;7.584;2024-01-27T00:24:52;9.27;;;1.47;;
79249;SDS011;68679;51.030;7.584;2024-01-27T00:27:17;10.37;;;1.60;;
79249;SDS011;68679;51.030;7.584;2024-01-27T00:29:43;5.80;;;1.60;;
79249;SDS011;68679;51.030;7.584;2024-01-27T00:32:08;4.53;;;1.30;;
79249;SDS011;68679;51.030;7.584;2024-01-27T00:34:33;5.63;;;1.20;;
79249;SDS011;68679;51.030;7.584;2024-01-27T00:36:58;10.27;;;1.67;;
79249;SDS011;68679;51.030;7.584;2024-01-27T00:39:24;5.70;;;2.00;;
79249;SDS011;68679;51.030;7.584;2024-01-27T00:41:49;9.40;;;1.97;;
79249;SDS011;68679;51.030;7.584;2024-01-27T00:44:14;6.20;;;1.83;;
79249;SDS011;68679;51.030;7.584;2024-01-27T00:46:40;3.63;;;1.65;;
79249;SDS011;68679;51.030;7.584;2024-01-27T00:49:05;10.87;;;1.90;;
79249;SDS011;68679;51.030;7.584;2024-01-27T00:51:30;3.53;;;1.30;;
79249;SDS011;68679;51.030;7.584;2024-01-27T00:53:56;8.83;;;1.70;;
79249;SDS011;68679;51.030;7.584;2024-01-27T00:56:21;6.27;;;2.40;;
79249;SDS011;68679;51.030;7.584;2024-01-27T00:58:46;8.87;;;1.60;;
79249;SDS011;68679;51.030;7.584;2024-01-27T01:01:12;6.83;;;1.70;;
79249;SDS011;68679;51.030;7.584;2024-01-27T01:03:37;5.70;;;1.85;;
79249;SDS011;68679;51.030;7.584;2024-01-27T01:06:03;5.83;;;1.50;;
79249;SDS011;68679;51.030;7.584;2024-01-27T01:08:28;6.37;;;1.87;;
79249;SDS011;68679;51.030;7.584;2024-01-27T01:10:53;8.80;;;1.70;;
79249;SDS011;68679;51.030;7.584;2024-01-27T01:13:19;8.17;;;1.43;;
79249;SDS011;68679;51.030;7.584;2024-01-27T01:15:44;5.13;;;1.60;;
79249;SDS011;68679;51.030;7.584;2024-01-27T01:18:09;5.68;;;1.60;;
79249;SDS011;68679;51.030;7.584;2024-01-27T01:20:34;8.43;;;1.93;;
79249;SDS011;68679;51.030;7.584;2024-01-27T01:23:00;9.02;;;1.50;;
79249;SDS011;68679;51.030;7.584;2024-01-27T01:25:25;7.13;;;2.67;;
79249;SDS011;68679;51.030;7.584;2024-01-27T01:27:51;9.35;;;1.90;;
79249;SDS011;68679;51.030;7.584;2024-01-27T01:30:17;3.58;;;1.65;;
79249;SDS011;68679;51.030;7.584;2024-01-27T01:32:43;3.53;;;1.30;;
79249;SDS011;68679;51.030;7.584;2024-01-27T01:35:09;7.38;;;1.90;;
79249;SDS011;68679;51.030;7.584;2024-01-27T01:37:35;12.75;;;1.90;;
79249;SDS011;68679;51.030;7.584;2024-01-27T01:40:00;9.13;;;1.63;;
79249;SDS011;68679;51.030;7.584;2024-01-27T01:42:25;5.43;;;2.03;;
79249;SDS011;68679;51.030;7.584;2024-01-27T01:44:51;9.37;;;1.73;;
79249;SDS011;68679;51.030;7.584;2024-01-27T01:47:17;5.40;;;1.60;;
79249;SDS011;68679;51.030;7.584;2024-01-27T01:49:43;10.55;;;2.10;;
79249;SDS011;68679;51.030;7.584;2024-01-27T01:52:08;7.23;;;1.80;;
79249;SDS011;68679;51.030;7.584;2024-01-27T01:54:34;3.90;;;1.80;;
79249;SDS011;68679;51.030;7.584;2024-01-27T01:56:59;7.13;;;1.87;;
79249;SDS011;68679;51.030;7.584;2024-01-27T01:59:25;9.05;;;1.45;;
79249;SDS011;68679;51.030;7.584;2024-01-27T02:01:50;5.05;;;2.13;;
79249;SDS011;68679;51.030;7.584;2024-01-27T02:04:15;6.93;;;1.87;;
79249;SDS011;68679;51.030;7.584;2024-01-27T02:06:41;6.53;;;2.07;;
79249;SDS011;68679;51.030;7.584;2024-01-27T02:09:06;10.40;;;2.27;;
79249;SDS011;68679;51.030;7.584;2024-01-27T02:11:31;7.73;;;2.57;;
79249;SDS011;68679;51.030;7.584;2024-01-27T02:13:56;7.03;;;2.27;;
79249;SDS011;68679;51.030;7.584;2024-01-27T02:16:22;3.80;;;1.73;;
79249;SDS011;68679;51.030;7.584;2024-01-27T02:18:47;6.97;;;2.30;;
79249;SDS011;68679;51.030;7.584;2024-01-27T02:21:12;5.70;;;1.40;;
79249;SDS011;68679;51.030;7.584;2024-01-27T02:23:38;6.18;;;1.83;;
79249;SDS011;68679;51.030;7.584;2024-01-27T02:26:03;5.20;;;1.93;;
79249;SDS011;68679;51.030;7.584;2024-01-27T02:28:28;5.17;;;1.60;;
79249;SDS011;68679;51.030;7.584;2024-01-27T02:30:57;7.93;;;2.00;;
79249;SDS011;68679;51.030;7.584;2024-01-27T02:33:23;6.65;;;1.95;;
79249;SDS011;68679;51.030;7.584;2024-01-27T02:35:48;6.50;;;1.60;;
79249;SDS011;68679;51.030;7.584;2024-01-27T02:38:13;6.03;;;1.93;;
79249;SDS011;68679;51.030;7.584;2024-01-27T02:40:39;6.00;;;1.60;;
79249;SDS011;68679;51.030;7.584;2024-01-27T02:43:04;5.00;;;1.50;;
79249;SDS011;68679;51.030;7.584;2024-01-27T02:45:29;5.03;;;1.70;;
79249;SDS011;68679;51.030;7.584;2024-01-27T02:47:54;5.43;;;1.97;;
79249;SDS011;68679;51.030;7.584;2024-01-27T02:50:20;7.60;;;1.40;;
79249;SDS011;68679;51.030;7.584;2024-01-27T02:52:45;5.87;;;2.10;;
79249;SDS011;68679;51.030;7.584;2024-01-27T02:55:10;5.33;;;1.67;;
79249;SDS011;68679;51.030;7.584;2024-01-27T02:57:35;8.87;;;2.57;;
79249;SDS011;68679;51.030;7.584;2024-01-27T03:00:01;5.67;;;1.73;;
79249;SDS011;68679;51.030;7.584;2024-01-27T03:02:26;6.13;;;2.43;;
79249;SDS011;68679;51.030;7.584;2024-01-27T03:04:51;6.70;;;2.43;;
79249;SDS011;68679;51.030;7.584;2024-01-27T03:07:17;2.67;;;1.57;;
79249;SDS011;68679;51.030;7.584;2024-01-27T03:09:42;7.40;;;2.23;;
79249;SDS011;68679;51.030;7.584;2024-01-27T03:12:07;4.50;;;2.13;;
79249;SDS011;68679;51.030;7.584;2024-01-27T03:14:33;8.30;;;1.70;;
79249;SDS011;68679;51.030;7.584;2024-01-27T03:16:58;7.73;;;2.47;;
79249;SDS011;68679;51.030;7.584;2024-01-27T03:19:23;5.87;;;1.70;;
79249;SDS011;68679;51.030;7.584;2024-01-27T03:21:49;9.50;;;2.63;;
79249;SDS011;68679;51.030;7.584;2024-01-27T03:24:14;7.27;;;1.87;;
79249;SDS011;68679;51.030;7.584;2024-01-27T03:26:39;9.50;;;2.47;;
79249;SDS011;68679;51.030;7.584;2024-01-27T03:29:04;3.90;;;2.27;;
79249;SDS011;68679;51.030;7.584;2024-01-27T03:31:33;4.87;;;1.73;;
79249;SDS011;68679;51.030;7.584;2024-01-27T03:34:02;6.57;;;1.98;;
79249;SDS011;68679;51.030;7.584;2024-01-27T03:36:27;5.88;;;1.98;;
79249;SDS011;68679;51.030;7.584;2024-01-27T03:38:53;4.95;;;1.98;;
79249;SDS011;68679;51.030;7.584;2024-01-27T03:41:21;4.13;;;1.23;;
79249;SDS011;68679;51.030;7.584;2024-01-27T03:43:46;3.60;;;1.80;;
79249;SDS011;68679;51.030;7.584;2024-01-27T03:46:11;4.23;;;1.73;;
79249;SDS011;68679;51.030;7.584;2024-01-27T03:48:37;5.07;;;2.00;;
79249;SDS011;68679;51.030;7.584;2024-01-27T03:51:02;6.07;;;2.17;;
79249;SDS011;68679;51.030;7.584;2024-01-27T03:53:28;7.22;;;2.22;;
79249;SDS011;68679;51.030;7.584;2024-01-27T03:55:53;6.50;;;2.37;;
79249;SDS011;68679;51.030;7.584;2024-01-27T03:58:19;3.53;;;1.77;;
79249;SDS011;68679;51.030;7.584;2024-01-27T04:00:44;3.95;;;1.65;;
79249;SDS011;68679;51.030;7.584;2024-01-27T04:03:10;3.42;;;2.10;;
79249;SDS011;68679;51.030;7.584;2024-01-27T04:05:35;12.00;;;2.22;;
79249;SDS011;68679;51.030;7.584;2024-01-27T04:08:01;12.68;;;2.47;;
79249;SDS011;68679;51.030;7.584;2024-01-27T04:10:26;4.10;;;1.85;;
79249;SDS011;68679;51.030;7.584;2024-01-27T04:12:52;5.20;;;2.00;;
79249;SDS011;68679;51.030;7.584;2024-01-27T04:15:17;6.53;;;2.17;;
79249;SDS011;68679;51.030;7.584;2024-01-27T04:17:43;4.37;;;1.70;;
79249;SDS011;68679;51.030;7.584;2024-01-27T04:20:08;7.53;;;1.90;;
79249;SDS011;68679;51.030;7.584;2024-01-27T04:22:34;6.43;;;2.33;;
79249;SDS011;68679;51.030;7.584;2024-01-27T04:25:00;3.55;;;1.80;;
79249;SDS011;68679;51.030;7.584;2024-01-27T04:27:28;8.48;;;2.55;;
79249;SDS011;68679;51.030;7.584;2024-01-27T04:29:53;8.40;;;2.33;;
79249;SDS011;68679;51.030;7.584;2024-01-27T04:32:19;4.03;;;2.08;;
79249;SDS011;68679;51.030;7.584;2024-01-27T04:34:46;11.35;;;2.70;;
79249;SDS011;68679;51.030;7.584;2024-01-27T04:37:12;11.15;;;3.00;;
79249;SDS011;68679;51.030;7.584;2024-01-27T04:39:37;3.90;;;1.97;;
79249;SDS011;68679;51.030;7.584;2024-01-27T04:42:02;4.50;;;1.80;;
79249;SDS011;68679;51.030;7.584;2024-01-27T04:44:28;5.63;;;1.60;;
79249;SDS011;68679;51.030;7.584;2024-01-27T04:46:53;5.53;;;2.33;;
79249;SDS011;68679;51.030;7.584;2024-01-27T04:49:18;5.57;;;1.60;;
79249;SDS011;68679;51.030;7.584;2024-01-27T04:51:44;4.30;;;2.05;;
79249;SDS011;68679;51.030;7.584;2024-01-27T04:54:09;13.33;;;1.90;;
79249;SDS011;68679;51.030;7.584;2024-01-27T04:56:35;8.45;;;2.15;;
79249;SDS011;68679;51.030;7.584;2024-01-27T04:59:02;6.63;;;2.60;;
79249;SDS011;68679;51.030;7.584;2024-01-27T05:01:28;4.77;;;1.80;;
79249;SDS011;68679;51.030;7.584;2024-01-27T05:03:53;9.17;;;2.70;;
79249;SDS011;68679;51.030;7.584;2024-01-27T05:06:18;5.03;;;2.30;;
79249;SDS011;68679;51.030;7.584;2024-01-27T05:08:43;5.23;;;2.10;;
79249;SDS011;68679;51.030;7.584;2024-01-27T05:11:09;5.70;;;3.17;;
79249;SDS011;68679;51.030;7.584;2024-01-27T05:13:34;3.20;;;1.75;;
79249;SDS011;68679;51.030;7.584;2024-01-27T05:16:00;6.35;;;2.22;;
79249;SDS011;68679;51.030;7.584;2024-01-27T05:18:25;6.80;;;2.28;;
79249;SDS011;68679;51.030;7.584;2024-01-27T05:20:51;4.93;;;2.17;;
79249;SDS011;68679;51.030;7.584;2024-01-27T05:23:16;3.67;;;1.67;;
79249;SDS011;68679;51.030;7.584;2024-01-27T05:25:42;11.02;;;2.17;;
79249;SDS011;68679;51.030;7.584;2024-01-27T05:28:07;4.40;;;2.30;;
79249;SDS011;68679;51.030;7.584;2024-01-27T05:30:32;7.40;;;2.50;;
79249;SDS011;68679;51.030;7.584;2024-01-27T05:32:58;10.07;;;2.40;;
79249;SDS011;68679;51.030;7.584;2024-01-27T05:35:23;6.33;;;3.10;;
79249;SDS011;68679;51.030;7.584;2024-01-27T05:37:48;5.40;;;2.57;;
79249;SDS011;68679;51.030;7.584;2024-01-27T05:40:15;7.53;;;2.58;;
79249;SDS011;68679;51.030;7.584;2024-01-27T05:42:40;10.80;;;2.93;;
79249;SDS011;68679;51.030;7.584;2024-01-27T05:45:08;12.95;;;2.72;;
79249;SDS011;68679;51.030;7.584;2024-01-27T05:47:35;8.60;;;2.08;;
79249;SDS011;68679;51.030;7.584;2024-01-27T05:50:00;7.97;;;2.60;;
79249;SDS011;68679;51.030;7.584;2024-01-27T05:52:25;6.67;;;2.90;;
79249;SDS011;68679;51.030;7.584;2024-01-27T05:54:51;3.73;;;2.07;;
79249;SDS011;68679;51.030;7.584;2024-01-27T05:57:17;5.93;;;2.85;;
79249;SDS011;68679;51.030;7.584;2024-01-27T05:59:42;4.43;;;2.77;;
79249;SDS011;68679;51.030;7.584;2024-01-27T06:02:07;6.93;;;2.97;;
79249;SDS011;68679;51.030;7.584;2024-01-27T06:04:33;10.33;;;3.33;;
79249;SDS011;68679;51.030;7.584;2024-01-27T06:06:59;7.20;;;3.08;;
79249;SDS011;68679;51.030;7.584;2024-01-27T06:09:25;8.95;;;2.80;;
79249;SDS011;68679;51.030;7.584;2024-01-27T06:11:50;8.90;;;3.15;;
79249;SDS011;68679;51.030;7.584;2024-01-27T06:14:15;6.33;;;2.73;;
79249;SDS011;68679;51.030;7.584;2024-01-27T06:16:41;5.43;;;2.30;;
79249;SDS011;68679;51.030;7.584;2024-01-27T06:19:06;7.83;;;3.00;;
79249;SDS011;68679;51.030;7.584;2024-01-27T06:21:31;8.30;;;2.77;;
79249;SDS011;68679;51.030;7.584;2024-01-27T06:23:56;10.10;;;2.77;;
79249;SDS011;68679;51.030;7.584;2024-01-27T06:26:22;5.70;;;2.30;;
79249;SDS011;68679;51.030;7.584;2024-01-27T06:28:47;7.00;;;3.60;;
79249;SDS011;68679;51.030;7.584;2024-01-27T06:31:12;7.70;;;3.07;;
79249;SDS011;68679;51.030;7.584;2024-01-27T06:33:39;13.05;;;3.38;;
79249;SDS011;68679;51.030;7.584;2024-01-27T06:36:05;7.57;;;2.83;;
79249;SDS011;68679;51.030;7.584;2024-01-27T06:38:30;16.45;;;3.42;;
79249;SDS011;68679;51.030;7.584;2024-01-27T06:40:56;9.85;;;3.17;;
79249;SDS011;68679;51.030;7.584;2024-01-27T06:43:22;6.63;;;2.60;;
79249;SDS011;68679;51.030;7.584;2024-01-27T06:45:48;12.63;;;3.67;;
79249;SDS011;68679;51.030;7.584;2024-01-27T06:48:13;12.20;;;3.67;;
79249;SDS011;68679;51.030;7.584;2024-01-27T06:50:39;8.43;;;3.03;;
79249;SDS011;68679;51.030;7.584;2024-01-27T06:53:04;7.20;;;2.93;;
79249;SDS011;68679;51.030;7.584;2024-01-27T06:55:29;10.27;;;3.33;;
79249;SDS011;68679;51.030;7.584;2024-01-27T06:57:54;12.27;;;3.33;;
79249;SDS011;68679;51.030;7.584;2024-01-27T07:00:20;6.13;;;3.10;;
79249;SDS011;68679;51.030;7.584;2024-01-27T07:02:45;11.13;;;3.33;;
79249;SDS011;68679;51.030;7.584;2024-01-27T07:05:11;6.27;;;3.00;;
79249;SDS011;68679;51.030;7.584;2024-01-27T07:07:39;8.68;;;3.47;;
79249;SDS011;68679;51.030;7.584;2024-01-27T07:10:04;8.68;;;3.25;;
79249;SDS011;68679;51.030;7.584;2024-01-27T07:12:32;13.50;;;3.08;;
79249;SDS011;68679;51.030;7.584;2024-01-27T07:14:57;5.73;;;3.20;;
79249;SDS011;68679;51.030;7.584;2024-01-27T07:17:24;7.57;;;2.65;;
79249;SDS011;68679;51.030;7.584;2024-01-27T07:19:51;8.25;;;3.75;;
79249;SDS011;68679;51.030;7.584;2024-01-27T07:22:16;9.90;;;3.30;;
79249;SDS011;68679;51.030;7.584;2024-01-27T07:24:41;4.67;;;2.97;;
79249;SDS011;68679;51.030;7.584;2024-01-27T07:27:06;8.00;;;3.57;;
79249;SDS011;68679;51.030;7.584;2024-01-27T07:29:32;7.20;;;3.43;;
79249;SDS011;68679;51.030;7.584;2024-01-27T07:31:57;7.73;;;3.00;;
79249;SDS011;68679;51.030;7.584;2024-01-27T07:34:22;7.30;;;3.63;;
79249;SDS011;68679;51.030;7.584;2024-01-27T07:36:47;6.90;;;3.17;;
79249;SDS011;68679;51.030;7.584;2024-01-27T07:39:16;9.23;;;3.30;;
79249;SDS011;68679;51.030;7.584;2024-01-27T07:41:41;4.88;;;2.67;;
79249;SDS011;68679;51.030;7.584;2024-01-27T07:44:08;9.10;;;3.10;;
79249;SDS011;68679;51.030;7.584;2024-01-27T07:46:35;6.10;;;3.55;;
79249;SDS011;68679;51.030;7.584;2024-01-27T07:49:01;10.52;;;3.55;;
79249;SDS011;68679;51.030;7.584;2024-01-27T07:51:26;7.70;;;3.13;;
79249;SDS011;68679;51.030;7.584;2024-01-27T07:53:51;8.57;;;3.30;;
79249;SDS011;68679;51.030;7.584;2024-01-27T07:56:17;8.00;;;3.13;;
79249;SDS011;68679;51.030;7.584;2024-01-27T07:58:42;10.67;;;3.90;;
79249;SDS011;68679;51.030;7.584;2024-01-27T08:01:08;9.40;;;3.50;;
79249;SDS011;68679;51.030;7.584;2024-01-27T08:03:33;8.47;;;3.67;;
79249;SDS011;68679;51.030;7.584;2024-01-27T08:05:58;11.27;;;4.23;;
79249;SDS011;68679;51.030;7.584;2024-01-27T08:08:24;6.15;;;3.35;;
79249;SDS011;68679;51.030;7.584;2024-01-27T08:10:49;6.47;;;3.67;;
79249;SDS011;68679;51.030;7.584;2024-01-27T08:13:14;15.73;;;3.70;;
79249;SDS011;68679;51.030;7.584;2024-01-27T08:15:40;6.32;;;3.45;;
79249;SDS011;68679;51.030;7.584;2024-01-27T08:18:05;9.53;;;4.10;;
79249;SDS011;68679;51.030;7.584;2024-01-27T08:20:30;10.10;;;3.27;;
79249;SDS011;68679;51.030;7.584;2024-01-27T08:22:55;9.03;;;4.10;;
79249;SDS011;68679;51.030;7.584;2024-01-27T08:25:21;7.37;;;3.80;;
79249;SDS011;68679;51.030;7.584;2024-01-27T08:27:46;4.87;;;3.43;;
79249;SDS011;68679;51.030;7.584;2024-01-27T08:30:11;14.57;;;4.40;;
79249;SDS011;68679;51.030;7.584;2024-01-27T08:32:37;14.88;;;4.15;;
79249;SDS011;68679;51.030;7.584;2024-01-27T08:35:02;21.73;;;9.70;;
79249;SDS011;68679;51.030;7.584;2024-01-27T08:37:28;22.48;;;10.30;;
79249;SDS011;68679;51.030;7.584;2024-01-27T08:39:54;14.75;;;7.55;;
79249;SDS011;68679;51.030;7.584;2024-01-27T08:42:20;12.40;;;5.70;;
79249;SDS011;68679;51.030;7.584;2024-01-27T08:44:45;15.50;;;8.20;;
79249;SDS011;68679;51.030;7.584;2024-01-27T08:47:10;12.50;;;6.53;;
79249;SDS011;68679;51.030;7.584;2024-01-27T08:49:36;11.00;;;5.03;;
79249;SDS011;68679;51.030;7.584;2024-01-27T08:52:01;15.23;;;6.77;;
79249;SDS011;68679;51.030;7.584;2024-01-27T08:54:26;18.85;;;8.60;;
79249;SDS011;68679;51.030;7.584;2024-01-27T08:56:52;12.93;;;6.50;;
79249;SDS011;68679;51.030;7.584;2024-01-27T08:59:17;23.97;;;10.03;;
79249;SDS011;68679;51.030;7.584;2024-01-27T09:01:42;15.03;;;7.10;;
79249;SDS011;68679;51.030;7.584;2024-01-27T09:04:07;16.13;;;9.20;;
79249;SDS011;68679;51.030;7.584;2024-01-27T09:06:34;18.02;;;9.55;;
79249;SDS011;68679;51.030;7.584;2024-01-27T09:08:59;18.15;;;7.00;;
79249;SDS011;68679;51.030;7.584;2024-01-27T09:11:25;15.38;;;4.25;;
79249;SDS011;68679;51.030;7.584;2024-01-27T09:13:54;5.93;;;3.83;;
79249;SDS011;68679;51.030;7.584;2024-01-27T09:16:20;11.38;;;4.10;;
79249;SDS011;68679;51.030;7.584;2024-01-27T09:18:45;10.10;;;3.77;;
79249;SDS011;68679;51.030;7.584;2024-01-27T09:21:10;18.88;;;3.17;;
79249;SDS011;68679;51.030;7.584;2024-01-27T09:23:36;7.07;;;2.90;;
79249;SDS011;68679;51.030;7.584;2024-01-27T09:26:02;9.77;;;4.40;;
79249;SDS011;68679;51.030;7.584;2024-01-27T09:28:27;4.47;;;2.07;;
79249;SDS011;68679;51.030;7.584;2024-01-27T09:30:52;8.77;;;3.50;;
79249;SDS011;68679;51.030;7.584;2024-01-27T09:33:18;12.87;;;4.90;;
79249;SDS011;68679;51.030;7.584;2024-01-27T09:35:45;10.80;;;3.85;;
79249;SDS011;68679;51.030;7.584;2024-01-27T09:38:12;6.85;;;2.97;;
79249;SDS011;68679;51.030;7.584;2024-01-27T09:40:39;14.60;;;3.88;;
79249;SDS011;68679;51.030;7.584;2024-01-27T09:43:04;9.05;;;3.28;;
79249;SDS011;68679;51.030;7.584;2024-01-27T09:45:30;7.00;;;3.83;;
79249;SDS011;68679;51.030;7.584;2024-01-27T09:47:59;13.10;;;4.33;;
79249;SDS011;68679;51.030;7.584;2024-01-27T09:50:25;10.38;;;4.72;;
79249;SDS011;68679;51.030;7.584;2024-01-27T09:52:50;10.80;;;3.88;;
79249;SDS011;68679;51.030;7.584;2024-01-27T09:55:16;10.63;;;4.28;;
79249;SDS011;68679;51.030;7.584;2024-01-27T09:57:41;9.67;;;3.47;;
79249;SDS011;68679;51.030;7.584;2024-01-27T10:00:10;5.78;;;2.65;;
79249;SDS011;68679;51.030;7.584;2024-01-27T10:02:38;9.38;;;3.72;;
79249;SDS011;68679;51.030;7.584;2024-01-27T10:05:05;4.88;;;2.47;;
79249;SDS011;68679;51.030;7.584;2024-01-27T10:07:33;11.55;;;2.97;;
79249;SDS011;68679;51.030;7.584;2024-01-27T10:09:58;7.40;;;3.27;;
79249;SDS011;68679;51.030;7.584;2024-01-27T10:12:23;13.17;;;2.67;;
79249;SDS011;68679;51.030;7.584;2024-01-27T10:14:51;7.22;;;2.85;;
79249;SDS011;68679;51.030;7.584;2024-01-27T10:17:20;6.20;;;3.00;;
79249;SDS011;68679;51.030;7.584;2024-01-27T10:20:00;3.15;;;1.70;;
79249;SDS011;68679;51.030;7.584;2024-01-27T10:22:26;8.43;;;2.47;;
79249;SDS011;68679;51.030;7.584;2024-01-27T10:24:52;6.22;;;2.38;;
79249;SDS011;68679;51.030;7.584;2024-01-27T10:27:17;7.88;;;2.22;;
79249;SDS011;68679;51.030;7.584;2024-01-27T10:29:55;3.45;;;2.08;;
79249;SDS011;68679;51.030;7.584;2024-01-27T10:34:49;5.28;;;2.83;;
79249;SDS011;68679;51.030;7.584;2024-01-27T10:37:15;4.38;;;2.03;;
79249;SDS011;68679;51.030;7.584;2024-01-27T10:39:40;3.03;;;2.63;;
79249;SDS011;68679;51.030;7.584;2024-01-27T10:42:06;3.93;;;1.40;;
79249;SDS011;68679;51.030;7.584;2024-01-27T10:44:34;5.85;;;1.58;;
79249;SDS011;68679;51.030;7.584;2024-01-27T10:47:03;3.78;;;1.13;;
79249;SDS011;68679;51.030;7.584;2024-01-27T10:49:30;7.32;;;3.35;;
79249;SDS011;68679;51.030;7.584;2024-01-27T10:51:59;6.50;;;2.03;;
79249;SDS011;68679;51.030;7.584;2024-01-27T10:54:26;13.23;;;3.08;;
79249;SDS011;68679;51.030;7.584;2024-01-27T10:56:53;3.15;;;2.13;;
79249;SDS011;68679;51.030;7.584;2024-01-27T10:59:21;1.67;;;1.48;;
79249;SDS011;68679;51.030;7.584;2024-01-27T11:01:47;3.33;;;1.70;;
79249;SDS011;68679;51.030;7.584;2024-01-27T11:04:17;2.50;;;2.00;;
79249;SDS011;68679;51.030;7.584;2024-01-27T11:06:44;2.15;;;1.90;;
79249;SDS011;68679;51.030;7.584;2024-01-27T11:09:12;13.07;;;2.72;;
79249;SDS011;68679;51.030;7.584;2024-01-27T11:11:39;2.35;;;1.48;;
79249;SDS011;68679;51.030;7.584;2024-01-27T11:14:06;2.45;;;1.13;;
79249;SDS011;68679;51.030;7.584;2024-01-27T11:16:32;2.95;;;1.67;;
79249;SDS011;68679;51.030;7.584;2024-01-27T11:18:59;7.43;;;1.65;;
79249;SDS011;68679;51.030;7.584;2024-01-27T11:21:24;12.13;;;2.13;;
79249;SDS011;68679;51.030;7.584;2024-01-27T11:23:49;5.50;;;1.73;;
79249;SDS011;68679;51.030;7.584;2024-01-27T11:26:21;7.35;;;3.22;;
79249;SDS011;68679;51.030;7.584;2024-01-27T11:28:48;3.58;;;1.52;;
79249;SDS011;68679;51.030;7.584;2024-01-27T11:31:15;8.70;;;1.00;;
79249;SDS011;68679;51.030;7.584;2024-01-27T11:33:43;6.63;;;1.13;;
79249;SDS011;68679;51.030;7.584;2024-01-27T11:36:17;5.70;;;3.17;;
79249;SDS011;68679;51.030;7.584;2024-01-27T11:38:48;4.00;;;1.95;;
79249;SDS011;68679;51.030;7.584;2024-01-27T11:41:22;2.80;;;1.23;;
79249;SDS011;68679;51.030;7.584;2024-01-27T11:43:55;2.70;;;1.05;;
79249;SDS011;68679;51.030;7.584;2024-01-27T11:46:21;7.25;;;1.45;;
79249;SDS011;68679;51.030;7.584;2024-01-27T11:48:47;5.07;;;1.55;;
79249;SDS011;68679;51.030;7.584;2024-01-27T11:51:13;2.33;;;1.10;;
79249;SDS011;68679;51.030;7.584;2024-01-27T11:53:39;12.17;;;1.73;;
79249;SDS011;68679;51.030;7.584;2024-01-27T11:56:04;4.80;;;1.00;;
79249;SDS011;68679;51.030;7.584;2024-01-27T11:58:30;3.40;;;1.48;;
79249;SDS011;68679;51.030;7.584;2024-01-27T12:00:56;2.63;;;1.38;;
79249;SDS011;68679;51.030;7.584;2024-01-27T12:03:22;2.55;;;1.15;;
79249;SDS011;68679;51.030;7.584;2024-01-27T12:05:47;3.83;;;1.42;;
79249;SDS011;68679;51.030;7.584;2024-01-27T12:08:13;2.70;;;1.30;;
79249;SDS011;68679;51.030;7.584;2024-01-27T12:10:38;2.07;;;0.97;;
79249;SDS011;68679;51.030;7.584;2024-01-27T12:13:03;3.67;;;1.37;;
79249;SDS011;68679;51.030;7.584;2024-01-27T12:15:29;7.03;;;2.20;;
79249;SDS011;68679;51.030;7.584;2024-01-27T12:17:54;4.32;;;1.30;;
79249;SDS011;68679;51.030;7.584;2024-01-27T12:20:21;3.85;;;1.17;;
79249;SDS011;68679;51.030;7.584;2024-01-27T12:22:47;6.80;;;1.50;;
79249;SDS011;68679;51.030;7.584;2024-01-27T12:25:16;6.18;;;1.55;;
79249;SDS011;68679;51.030;7.584;2024-01-27T12:27:42;8.77;;;2.05;;
79249;SDS011;68679;51.030;7.584;2024-01-27T12:30:08;7.13;;;1.38;;
79249;SDS011;68679;51.030;7.584;2024-01-27T12:32:35;10.13;;;2.17;;
79249;SDS011;68679;51.030;7.584;2024-01-27T12:35:04;4.47;;;1.60;;
79249;SDS011;68679;51.030;7.584;2024-01-27T12:37:30;3.35;;;1.50;;
79249;SDS011;68679;51.030;7.584;2024-01-27T12:39:56;3.93;;;1.67;;
79249;SDS011;68679;51.030;7.584;2024-01-27T12:42:21;5.33;;;1.67;;
79249;SDS011;68679;51.030;7.584;2024-01-27T12:44:46;3.88;;;1.55;;
79249;SDS011;68679;51.030;7.584;2024-01-27T12:47:12;2.50;;;1.17;;
79249;SDS011;68679;51.030;7.584;2024-01-27T12:49:38;5.97;;;1.33;;
79249;SDS011;68679;51.030;7.584;2024-01-27T12:52:04;9.48;;;1.92;;
79249;SDS011;68679;51.030;7.584;2024-01-27T12:54:30;7.65;;;1.98;;
79249;SDS011;68679;51.030;7.584;2024-01-27T12:56:58;7.18;;;1.40;;
79249;SDS011;68679;51.030;7.584;2024-01-27T12:59:26;3.50;;;1.48;;
79249;SDS011;68679;51.030;7.584;2024-01-27T13:01:51;5.78;;;1.80;;
79249;SDS011;68679;51.030;7.584;2024-01-27T13:04:17;7.97;;;1.42;;
79249;SDS011;68679;51.030;7.584;2024-01-27T13:06:43;8.47;;;2.23;;
79249;SDS011;68679;51.030;7.584;2024-01-27T13:09:08;7.63;;;2.37;;
79249;SDS011;68679;51.030;7.584;2024-01-27T13:11:38;3.78;;;1.48;;
79249;SDS011;68679;51.030;7.584;2024-01-27T13:14:04;8.85;;;1.42;;
79249;SDS011;68679;51.030;7.584;2024-01-27T13:16:30;8.43;;;2.45;;
79249;SDS011;68679;51.030;7.584;2024-01-27T13:18:55;7.85;;;1.60;;
79249;SDS011;68679;51.030;7.584;2024-01-27T13:21:21;2.53;;;0.80;;
79249;SDS011;68679;51.030;7.584;2024-01-27T13:23:46;5.30;;;1.47;;
79249;SDS011;68679;51.030;7.584;2024-01-27T13:26:11;5.97;;;1.53;;
79249;SDS011;68679;51.030;7.584;2024-01-27T13:28:37;2.83;;;1.40;;
79249;SDS011;68679;51.030;7.584;2024-01-27T13:31:02;1.87;;;1.13;;
79249;SDS011;68679;51.030;7.584;2024-01-27T13:33:27;8.03;;;1.20;;
79249;SDS011;68679;51.030;7.584;2024-01-27T13:35:54;4.50;;;2.17;;
79249;SDS011;68679;51.030;7.584;2024-01-27T13:38:19;18.00;;;2.20;;
79249;SDS011;68679;51.030;7.584;2024-01-27T13:40:48;10.10;;;1.67;;
79249;SDS011;68679;51.030;7.584;2024-01-27T13:43:14;5.75;;;1.38;;
79249;SDS011;68679;51.030;7.584;2024-01-27T13:45:39;9.80;;;1.90;;
79249;SDS011;68679;51.030;7.584;2024-01-27T13:48:04;5.22;;;1.10;;
79249;SDS011;68679;51.030;7.584;2024-01-27T13:50:30;3.25;;;1.20;;
79249;SDS011;68679;51.030;7.584;2024-01-27T13:52:56;7.57;;;1.55;;
79249;SDS011;68679;51.030;7.584;2024-01-27T13:55:22;2.13;;;0.95;;
79249;SDS011;68679;51.030;7.584;2024-01-27T13:57:48;8.30;;;1.80;;
79249;SDS011;68679;51.030;7.584;2024-01-27T14:00:14;4.72;;;1.20;;
79249;SDS011;68679;51.030;7.584;2024-01-27T14:02:41;11.05;;;1.73;;
79249;SDS011;68679;51.030;7.584;2024-01-27T14:05:07;4.45;;;1.52;;
79249;SDS011;68679;51.030;7.584;2024-01-27T14:07:32;7.07;;;1.60;;
79249;SDS011;68679;51.030;7.584;2024-01-27T14:09:58;2.80;;;0.90;;
79249;SDS011;68679;51.030;7.584;2024-01-27T14:12:24;7.97;;;1.45;;
79249;SDS011;68679;51.030;7.584;2024-01-27T14:14:50;2.10;;;0.83;;
79249;SDS011;68679;51.030;7.584;2024-01-27T14:17:15;5.03;;;1.30;;
79249;SDS011;68679;51.030;7.584;2024-01-27T14:19:41;11.40;;;1.88;;
79249;SDS011;68679;51.030;7.584;2024-01-27T14:22:06;2.67;;;1.10;;
79249;SDS011;68679;51.030;7.584;2024-01-27T14:24:31;7.27;;;1.23;;
79249;SDS011;68679;51.030;7.584;2024-01-27T14:26:58;5.25;;;1.40;;
79249;SDS011;68679;51.030;7.584;2024-01-27T14:29:23;1.48;;;0.73;;
79249;SDS011;68679;51.030;7.584;2024-01-27T14:31:49;5.68;;;1.27;;
79249;SDS011;68679;51.030;7.584;2024-01-27T14:34:14;8.63;;;1.23;;
79249;SDS011;68679;51.030;7.584;2024-01-27T14:36:39;8.10;;;1.57;;
79249;SDS011;68679;51.030;7.584;2024-01-27T14:39:05;2.20;;;0.88;;